Terminal Aerodrome Forecast
Issued by NWS

Home | Current Version | Previous Version | Text Only | Print | Product List | Glossary On
Versions: 1 2 3 4 5 6 7 8 9 10 11 12 13 14 15 16 17 18
000
FTUS45 KBOU 192322
TAFAPA
TAF
KAPA 192322Z 2000/2024 23011KT P6SM SCT100
     FM200300 19010KT P6SM FEW140 SCT200
     FM201500 VRB06KT P6SM FEW140 SCT220
     FM201700 04010KT P6SM FEW100 SCT200
     FM202200 09010KT P6SM VCTS SCT100CB BKN220=

USA.gov is the U.S. government's official web portal to all federal, state and local government web resources and services.